createdAt,value
2023-02-13T00:01:54.483Z,95.33
2023-02-13T00:04:21.084Z,94.95
2023-02-13T00:06:50.142Z,95.19
2023-02-13T00:09:16.721Z,95.31
2023-02-13T00:11:43.315Z,95.42
2023-02-13T00:14:09.879Z,95.46
2023-02-13T00:16:36.373Z,95.79
2023-02-13T00:19:03.000Z,95.70
2023-02-13T00:21:29.505Z,95.62
2023-02-13T00:23:55.978Z,95.63
2023-02-13T00:26:22.524Z,95.85
2023-02-13T00:28:49.112Z,95.92
2023-02-13T00:31:18.659Z,95.88
2023-02-13T00:33:45.382Z,95.94
2023-02-13T00:36:14.530Z,95.96
2023-02-13T00:38:42.245Z,95.87
2023-02-13T00:41:09.821Z,95.82
2023-02-13T00:43:36.852Z,96.38
2023-02-13T00:46:04.707Z,96.59
2023-02-13T00:48:33.418Z,96.67
2023-02-13T00:51:00.502Z,96.36
2023-02-13T00:53:29.507Z,96.36
2023-02-13T00:55:56.369Z,96.75
2023-02-13T00:58:23.485Z,96.65
2023-02-13T01:00:53.022Z,96.44
2023-02-13T01:03:20.687Z,96.61
2023-02-13T01:05:48.033Z,96.54
2023-02-13T01:08:16.521Z,96.88
2023-02-13T01:10:44.999Z,96.61
2023-02-13T01:13:12.495Z,96.60
2023-02-13T01:15:40.322Z,97.04
2023-02-13T01:18:06.911Z,97.01
2023-02-13T01:20:34.117Z,97.03
2023-02-13T01:23:00.693Z,96.77
2023-02-13T01:25:28.236Z,97.24
2023-02-13T01:27:56.358Z,97.40
2023-02-13T01:30:22.873Z,97.63
2023-02-13T01:32:49.458Z,97.54
2023-02-13T01:35:16.325Z,97.52
2023-02-13T01:37:43.779Z,97.61
2023-02-13T01:40:13.693Z,98.08
2023-02-13T01:42:40.455Z,97.78
2023-02-13T01:45:29.769Z,98.03
2023-02-13T01:48:11.367Z,98.13
2023-02-13T01:50:52.729Z,98.13
2023-02-13T01:53:46.729Z,98.29
2023-02-13T01:56:16.899Z,98.40
2023-02-13T01:58:46.632Z,97.99
2023-02-13T02:01:13.262Z,98.10
2023-02-13T02:03:48.371Z,98.56
2023-02-13T02:06:21.697Z,98.83
2023-02-13T02:08:50.373Z,98.84
2023-02-13T02:11:27.809Z,98.26
2023-02-13T02:13:54.530Z,98.22
2023-02-13T02:16:32.546Z,98.16
2023-02-13T02:19:04.083Z,98.60
2023-02-13T02:21:34.084Z,98.51
2023-02-13T02:24:24.737Z,98.47
2023-02-13T02:27:12.437Z,98.51
2023-02-13T02:30:24.121Z,98.72
2023-02-13T02:33:16.842Z,98.43
2023-02-13T02:36:08.763Z,98.65
2023-02-13T02:38:51.942Z,98.80
2023-02-13T02:41:42.996Z,98.96
2023-02-13T02:44:52.288Z,99.38
2023-02-13T02:48:09.727Z,98.75
2023-02-13T02:50:46.565Z,99.09
2023-02-13T02:53:28.537Z,99.18
2023-02-13T02:56:03.591Z,98.94
2023-02-13T02:59:15.057Z,99.07
2023-02-13T03:02:02.680Z,98.75
2023-02-13T03:05:01.928Z,98.73
2023-02-13T03:07:28.560Z,98.71
2023-02-13T03:10:21.773Z,98.54
2023-02-13T03:13:15.515Z,98.30
2023-02-13T03:16:03.556Z,98.18
2023-02-13T03:18:51.872Z,98.38
2023-02-13T03:21:54.619Z,98.22
2023-02-13T03:24:31.214Z,97.94
2023-02-13T03:27:08.733Z,97.81
2023-02-13T03:30:04.306Z,97.89
2023-02-13T03:32:42.575Z,97.97
2023-02-13T03:36:05.876Z,97.95
2023-02-13T03:38:52.578Z,97.87
2023-02-13T03:41:25.501Z,97.87
2023-02-13T03:43:59.866Z,97.50
2023-02-13T03:46:28.786Z,97.79
2023-02-13T03:49:15.996Z,97.41
2023-02-13T03:52:40.762Z,97.45
2023-02-13T03:55:51.614Z,97.57
2023-02-13T03:58:42.159Z,97.65
2023-02-13T04:01:11.756Z,97.24
2023-02-13T04:03:48.786Z,97.35
2023-02-13T04:06:32.023Z,97.32
2023-02-13T04:08:58.823Z,97.07
2023-02-13T04:11:35.798Z,96.79
2023-02-13T04:14:29.403Z,96.79
2023-02-13T04:17:09.043Z,96.38
2023-02-13T04:19:35.717Z,96.60
2023-02-13T04:22:02.856Z,96.63
2023-02-13T04:24:30.074Z,96.49
2023-02-13T04:26:57.714Z,96.39
2023-02-13T04:29:25.640Z,96.26
2023-02-13T04:31:52.324Z,96.58
2023-02-13T04:34:19.000Z,96.45
2023-02-13T04:36:45.577Z,96.40
2023-02-13T04:39:12.538Z,96.62
2023-02-13T04:41:39.098Z,96.84
2023-02-13T04:44:05.653Z,96.66
2023-02-13T04:46:32.218Z,96.87
2023-02-13T04:48:58.767Z,97.03
2023-02-13T04:51:25.324Z,97.15
2023-02-13T04:53:51.869Z,97.16
2023-02-13T04:56:19.918Z,97.16
2023-02-13T04:58:46.827Z,97.12
2023-02-13T05:01:14.913Z,97.39
2023-02-13T05:03:41.578Z,97.14
2023-02-13T05:06:08.173Z,96.94
2023-02-13T05:08:35.211Z,97.13
2023-02-13T05:11:01.805Z,97.36
2023-02-13T05:13:28.333Z,97.18
2023-02-13T05:15:54.894Z,96.90
2023-02-13T05:18:21.549Z,97.10
2023-02-13T05:21:10.746Z,96.59
2023-02-13T05:23:37.578Z,97.20
2023-02-13T05:26:04.232Z,97.17
2023-02-13T05:28:49.090Z,97.06
2023-02-13T05:31:15.778Z,96.55
2023-02-13T05:33:42.415Z,96.46
2023-02-13T05:36:09.007Z,96.40
2023-02-13T05:38:35.609Z,96.19
2023-02-13T05:41:02.386Z,96.47
2023-02-13T05:43:29.390Z,96.94
2023-02-13T05:46:06.141Z,96.93
2023-02-13T05:48:32.958Z,96.80
2023-02-13T05:50:59.725Z,96.70
2023-02-13T05:53:26.366Z,96.78
2023-02-13T05:55:53.131Z,96.49
2023-02-13T05:58:20.665Z,97.06
2023-02-13T06:00:48.045Z,97.26
2023-02-13T06:03:15.115Z,96.74
2023-02-13T06:05:41.696Z,96.33
2023-02-13T06:08:08.301Z,96.51
2023-02-13T06:10:34.807Z,96.18
2023-02-13T06:13:01.320Z,96.33
2023-02-13T06:15:27.889Z,96.27
2023-02-13T06:17:54.453Z,96.16
2023-02-13T06:20:21.112Z,96.30
2023-02-13T06:22:51.538Z,96.56
2023-02-13T06:25:18.786Z,96.40
2023-02-13T06:27:45.340Z,96.22
2023-02-13T06:30:12.610Z,96.05
2023-02-13T06:32:40.253Z,96.01
2023-02-13T06:35:07.378Z,96.26
2023-02-13T06:37:34.117Z,95.76
2023-02-13T06:40:00.963Z,95.96
2023-02-13T06:42:27.511Z,96.06
2023-02-13T06:44:54.025Z,95.99
2023-02-13T06:47:20.589Z,95.69
2023-02-13T06:49:47.191Z,95.81
2023-02-13T06:52:13.759Z,96.03
2023-02-13T06:54:47.326Z,95.64
2023-02-13T06:57:14.552Z,95.97
2023-02-13T06:59:41.052Z,95.84
2023-02-13T07:02:12.422Z,95.81
2023-02-13T07:04:38.946Z,95.31
2023-02-13T07:07:05.710Z,95.51
2023-02-13T07:09:32.417Z,95.55
2023-02-13T07:11:58.966Z,95.14
2023-02-13T07:14:25.432Z,95.34
2023-02-13T07:16:51.916Z,95.17
2023-02-13T07:19:18.739Z,95.09
2023-02-13T07:21:45.308Z,95.22
2023-02-13T07:24:11.821Z,95.14
2023-02-13T07:26:38.350Z,95.48
2023-02-13T07:29:11.414Z,95.46
2023-02-13T07:31:39.282Z,94.92
2023-02-13T07:34:05.949Z,95.17
2023-02-13T07:36:32.520Z,95.22
2023-02-13T07:38:59.137Z,95.70
2023-02-13T07:41:26.734Z,95.75
2023-02-13T07:43:53.958Z,95.44
2023-02-13T07:46:20.749Z,95.82
2023-02-13T07:48:47.316Z,95.81
2023-02-13T07:51:13.997Z,96.48
2023-02-13T07:53:40.550Z,96.21
2023-02-13T07:56:08.061Z,96.29
2023-02-13T07:58:35.364Z,96.77
2023-02-13T08:01:12.284Z,97.61
2023-02-13T08:03:39.013Z,97.93
2023-02-13T08:06:06.657Z,98.08
2023-02-13T08:08:33.190Z,98.98
2023-02-13T08:11:25.317Z,99.00
2023-02-13T08:13:51.915Z,98.56
2023-02-13T08:16:18.580Z,99.01
2023-02-13T08:18:45.095Z,98.82
2023-02-13T08:21:11.654Z,99.53
2023-02-13T08:23:38.212Z,99.75
2023-02-13T08:26:04.875Z,99.65
2023-02-13T08:28:31.525Z,99.86
2023-02-13T08:30:58.139Z,100.00
2023-02-13T08:33:24.943Z,100.00
2023-02-13T08:35:51.474Z,100.00
2023-02-13T08:38:18.089Z,100.00
2023-02-13T08:40:44.649Z,100.00
2023-02-13T08:43:11.260Z,100.00
2023-02-13T08:45:37.867Z,100.00
2023-02-13T08:48:04.491Z,100.00
2023-02-13T08:50:31.925Z,100.00
2023-02-13T08:52:59.682Z,100.00
2023-02-13T08:55:27.903Z,100.00
2023-02-13T08:57:54.474Z,100.00
2023-02-13T09:00:21.529Z,100.00
2023-02-13T09:02:48.137Z,100.00
2023-02-13T09:05:14.698Z,100.00
2023-02-13T09:07:41.269Z,100.00
2023-02-13T09:10:08.122Z,100.00
2023-02-13T09:12:34.771Z,100.00
2023-02-13T09:15:01.313Z,100.00
2023-02-13T09:17:27.912Z,100.00
2023-02-13T09:19:54.477Z,100.00
2023-02-13T09:22:20.969Z,100.00
2023-02-13T09:24:47.527Z,100.00
2023-02-13T09:27:14.048Z,100.00
2023-02-13T09:29:40.677Z,100.00
2023-02-13T09:32:07.429Z,100.00
2023-02-13T09:34:34.068Z,100.00
2023-02-13T09:37:00.640Z,100.00
2023-02-13T09:39:27.275Z,100.00
2023-02-13T09:41:54.608Z,100.00
2023-02-13T09:44:43.457Z,100.00
2023-02-13T09:47:15.694Z,100.00
2023-02-13T09:49:47.548Z,100.00
2023-02-13T09:52:14.885Z,100.00
2023-02-13T09:54:41.473Z,100.00
2023-02-13T09:57:13.989Z,100.00
2023-02-13T10:00:13.196Z,100.00
2023-02-13T10:03:07.066Z,100.00
2023-02-13T10:05:36.600Z,100.00
2023-02-13T10:08:20.014Z,100.00
2023-02-13T10:11:26.934Z,100.00
2023-02-13T10:14:10.570Z,100.00
2023-02-13T10:16:49.137Z,100.00
2023-02-13T10:19:41.442Z,100.00
2023-02-13T10:22:41.298Z,100.00
2023-02-13T10:25:41.939Z,100.00
2023-02-13T10:28:17.405Z,100.00
2023-02-13T10:30:52.936Z,100.00
2023-02-13T10:33:28.513Z,100.00
2023-02-13T10:36:17.134Z,100.00
2023-02-13T10:38:46.145Z,100.00
2023-02-13T10:41:42.986Z,100.00
2023-02-13T10:44:38.061Z,100.00
2023-02-13T10:47:13.565Z,100.00
2023-02-13T10:49:52.789Z,100.00
2023-02-13T10:52:41.204Z,100.00
2023-02-13T10:55:45.305Z,100.00
2023-02-13T10:58:26.002Z,100.00
2023-02-13T11:01:16.670Z,100.00
2023-02-13T11:03:45.419Z,100.00
2023-02-13T11:06:17.780Z,100.00
2023-02-13T11:08:47.127Z,100.00
2023-02-13T11:11:40.284Z,100.00
2023-02-13T11:14:26.594Z,100.00
2023-02-13T11:17:05.977Z,100.00
2023-02-13T11:20:07.759Z,100.00
2023-02-13T11:22:38.062Z,100.00
2023-02-13T11:25:25.318Z,100.00
2023-02-13T11:28:08.054Z,100.00
2023-02-13T11:30:38.578Z,100.00
2023-02-13T11:33:23.035Z,99.40
2023-02-13T11:35:49.554Z,99.40
2023-02-13T11:38:16.088Z,99.07
2023-02-13T11:40:45.922Z,98.80
2023-02-13T11:43:29.053Z,99.17
2023-02-13T11:46:11.607Z,99.95
2023-02-13T11:48:38.233Z,99.69
2023-02-13T11:51:04.941Z,100.00
2023-02-13T11:53:37.274Z,99.87
2023-02-13T11:56:13.618Z,99.45
2023-02-13T11:58:41.921Z,99.58
2023-02-13T12:01:20.536Z,99.41
2023-02-13T12:04:16.192Z,99.62
2023-02-13T12:07:00.228Z,99.55
2023-02-13T12:09:27.577Z,99.13
2023-02-13T12:11:57.509Z,99.08
2023-02-13T12:14:31.412Z,98.31
2023-02-13T12:17:05.293Z,98.38
2023-02-13T12:19:45.438Z,98.00
2023-02-13T12:22:33.981Z,97.49
2023-02-13T12:25:28.229Z,96.90
2023-02-13T12:28:00.976Z,96.93
2023-02-13T12:30:52.850Z,95.32
2023-02-13T12:33:48.136Z,95.27
2023-02-13T12:36:24.901Z,95.68
2023-02-13T12:39:25.056Z,95.22
2023-02-13T12:42:32.950Z,95.36
2023-02-13T12:45:37.698Z,93.62
2023-02-13T12:48:39.745Z,93.78
2023-02-13T12:51:20.814Z,92.99
2023-02-13T12:54:06.265Z,93.70
2023-02-13T12:56:54.634Z,93.95
2023-02-13T12:59:36.913Z,92.98
2023-02-13T13:02:24.140Z,92.83
2023-02-13T13:05:00.542Z,91.55
2023-02-13T13:07:26.985Z,91.85
2023-02-13T13:10:21.409Z,92.45
2023-02-13T13:13:09.566Z,91.09
2023-02-13T13:16:04.718Z,90.71
2023-02-13T13:18:37.072Z,90.08
2023-02-13T13:21:29.838Z,90.44
2023-02-13T13:24:06.072Z,90.37
2023-02-13T13:26:38.694Z,89.16
2023-02-13T13:29:19.275Z,89.86
2023-02-13T13:31:59.862Z,88.73
2023-02-13T13:34:27.909Z,87.71
2023-02-13T13:37:17.290Z,88.42
2023-02-13T13:39:49.709Z,86.54
2023-02-13T13:42:42.167Z,86.25
2023-02-13T13:45:20.806Z,86.09
2023-02-13T13:47:54.075Z,85.39
2023-02-13T13:50:23.419Z,84.08
2023-02-13T13:53:05.165Z,85.17
2023-02-13T13:55:47.113Z,85.07
2023-02-13T13:58:32.309Z,87.44
2023-02-13T14:01:17.885Z,86.91
2023-02-13T14:03:49.350Z,82.79
2023-02-13T14:06:19.354Z,83.19
2023-02-13T14:08:49.250Z,82.60
2023-02-13T14:11:33.534Z,81.67
2023-02-13T14:14:01.257Z,81.24
2023-02-13T14:16:43.295Z,82.33
2023-02-13T14:19:27.102Z,82.42
2023-02-13T14:21:55.633Z,83.00
2023-02-13T14:24:24.839Z,82.75
2023-02-13T14:27:05.081Z,82.64
2023-02-13T14:29:33.429Z,81.70
2023-02-13T14:32:02.348Z,80.12
2023-02-13T14:34:32.663Z,80.49
2023-02-13T14:37:12.879Z,81.34
2023-02-13T14:39:42.151Z,79.99
2023-02-13T14:42:28.345Z,80.64
2023-02-13T14:44:58.242Z,79.18
2023-02-13T14:47:36.971Z,79.45
2023-02-13T14:50:05.082Z,78.89
2023-02-13T14:52:35.711Z,77.52
2023-02-13T14:55:06.889Z,79.66
2023-02-13T14:57:41.742Z,78.55
2023-02-13T15:00:23.350Z,78.18
2023-02-13T15:02:55.131Z,78.24
2023-02-13T15:05:24.271Z,81.50
2023-02-13T15:08:01.444Z,78.38
2023-02-13T15:10:41.706Z,77.99
2023-02-13T15:13:33.169Z,79.50
2023-02-13T15:16:02.557Z,76.16
2023-02-13T15:18:41.064Z,77.13
2023-02-13T15:21:14.750Z,76.91
2023-02-13T15:23:41.637Z,77.82
2023-02-13T15:26:08.381Z,77.20
2023-02-13T15:28:36.077Z,76.54
2023-02-13T15:31:20.836Z,77.06
2023-02-13T15:33:49.948Z,76.60
2023-02-13T15:36:19.740Z,77.09
2023-02-13T15:38:46.236Z,76.89
2023-02-13T15:41:16.511Z,76.58
2023-02-13T15:43:45.757Z,75.25
2023-02-13T15:46:21.549Z,76.38
2023-02-13T15:48:48.882Z,75.88
2023-02-13T15:51:26.912Z,76.02
2023-02-13T15:53:55.569Z,76.85
2023-02-13T15:56:23.083Z,77.23
2023-02-13T15:58:51.329Z,77.23
2023-02-13T16:01:18.460Z,77.07
2023-02-13T16:03:51.200Z,77.29
2023-02-13T16:06:21.022Z,75.49
2023-02-13T16:09:06.298Z,77.29
2023-02-13T16:11:40.162Z,75.53
2023-02-13T16:14:27.251Z,76.04
2023-02-13T16:16:58.241Z,76.35
2023-02-13T16:19:43.190Z,75.96
2023-02-13T16:22:42.036Z,76.70
2023-02-13T16:25:25.810Z,77.16
2023-02-13T16:28:05.751Z,77.04
2023-02-13T16:30:40.561Z,76.75
2023-02-13T16:33:16.197Z,77.97
2023-02-13T16:35:56.476Z,77.67
2023-02-13T16:38:32.829Z,77.55
2023-02-13T16:41:18.810Z,77.77
2023-02-13T16:43:53.393Z,78.08
2023-02-13T16:46:24.512Z,78.24
2023-02-13T16:48:57.118Z,78.48
2023-02-13T16:51:34.764Z,78.30
2023-02-13T16:54:26.135Z,78.93
2023-02-13T16:57:03.240Z,78.46
2023-02-13T16:59:42.809Z,78.54
2023-02-13T17:02:25.980Z,78.97
2023-02-13T17:04:55.552Z,78.76
2023-02-13T17:07:31.800Z,79.45
2023-02-13T17:10:01.169Z,78.51
2023-02-13T17:12:30.285Z,79.04
2023-02-13T17:14:59.401Z,79.17
2023-02-13T17:17:29.107Z,79.46
2023-02-13T17:19:55.677Z,79.18
2023-02-13T17:22:31.848Z,79.62
2023-02-13T17:24:59.261Z,79.01
2023-02-13T17:27:26.088Z,79.58
2023-02-13T17:29:52.591Z,79.95
2023-02-13T17:32:22.397Z,79.98
2023-02-13T17:34:49.066Z,79.87
2023-02-13T17:37:23.649Z,80.13
2023-02-13T17:39:50.654Z,80.26
2023-02-13T17:42:20.815Z,80.37
2023-02-13T17:44:47.807Z,79.94
2023-02-13T17:47:14.425Z,80.31
2023-02-13T17:49:40.986Z,80.50
2023-02-13T17:52:08.481Z,80.67
2023-02-13T17:54:35.833Z,80.67
2023-02-13T17:57:02.339Z,80.63
2023-02-13T17:59:28.851Z,80.77
2023-02-13T18:01:55.424Z,80.92
2023-02-13T18:04:22.084Z,80.84
2023-02-13T18:06:52.211Z,81.37
2023-02-13T18:09:19.168Z,81.23
2023-02-13T18:12:04.555Z,81.28
2023-02-13T18:14:32.312Z,81.00
2023-02-13T18:16:59.108Z,80.94
2023-02-13T18:19:26.645Z,81.23
2023-02-13T18:21:53.164Z,81.11
2023-02-13T18:24:19.781Z,81.37
2023-02-13T18:26:46.271Z,81.35
2023-02-13T18:29:12.821Z,81.66
2023-02-13T18:31:39.486Z,81.74
2023-02-13T18:34:06.022Z,81.90
2023-02-13T18:36:32.569Z,81.76
2023-02-13T18:38:59.219Z,81.60
2023-02-13T18:41:25.806Z,81.72
2023-02-13T18:43:52.340Z,81.94
2023-02-13T18:46:18.908Z,81.79
2023-02-13T18:48:45.407Z,81.70
2023-02-13T18:51:12.014Z,81.99
2023-02-13T18:53:38.660Z,81.76
2023-02-13T18:56:07.248Z,82.24
2023-02-13T18:58:34.321Z,82.22
2023-02-13T19:01:11.969Z,82.36
2023-02-13T19:03:39.048Z,81.95
2023-02-13T19:06:10.604Z,82.19
2023-02-13T19:08:37.255Z,82.23
2023-02-13T19:11:05.837Z,82.06
2023-02-13T19:13:32.757Z,81.93
2023-02-13T19:16:11.991Z,82.59
2023-02-13T19:18:39.852Z,82.32
2023-02-13T19:21:06.913Z,82.10
2023-02-13T19:23:34.084Z,82.01
2023-02-13T19:26:15.417Z,82.77
2023-02-13T19:28:42.076Z,82.27
2023-02-13T19:31:12.013Z,82.83
2023-02-13T19:33:39.286Z,82.58
2023-02-13T19:36:14.354Z,82.33
2023-02-13T19:38:43.226Z,82.31
2023-02-13T19:41:16.094Z,82.61
2023-02-13T19:43:42.930Z,82.54
2023-02-13T19:46:12.844Z,82.86
2023-02-13T19:48:43.055Z,82.61
2023-02-13T19:51:11.539Z,82.44
2023-02-13T19:53:38.625Z,82.95
2023-02-13T19:56:07.159Z,82.68
2023-02-13T19:58:36.505Z,83.04
2023-02-13T20:01:11.564Z,82.86
2023-02-13T20:03:38.075Z,82.61
2023-02-13T20:06:10.778Z,83.44
2023-02-13T20:08:37.496Z,83.24
2023-02-13T20:11:07.546Z,83.46
2023-02-13T20:13:34.587Z,82.84
2023-02-13T20:16:05.588Z,83.14
2023-02-13T20:18:33.714Z,83.25
2023-02-13T20:21:00.544Z,83.15
2023-02-13T20:23:27.318Z,82.75
2023-02-13T20:25:53.836Z,82.79
2023-02-13T20:28:20.348Z,82.33
2023-02-13T20:30:46.959Z,82.75
2023-02-13T20:33:13.500Z,82.84
2023-02-13T20:35:40.005Z,83.39
2023-02-13T20:38:06.486Z,82.80
2023-02-13T20:40:33.121Z,82.60
2023-02-13T20:42:59.665Z,82.40
2023-02-13T20:45:26.339Z,82.77
2023-02-13T20:47:52.906Z,82.94
2023-02-13T20:50:19.511Z,82.68
2023-02-13T20:52:46.071Z,82.76
2023-02-13T20:55:12.637Z,82.58
2023-02-13T20:57:39.181Z,82.96
2023-02-13T21:00:07.149Z,82.86
2023-02-13T21:02:33.764Z,82.55
2023-02-13T21:05:00.419Z,82.94
2023-02-13T21:07:26.999Z,82.94
2023-02-13T21:09:53.595Z,82.81
2023-02-13T21:12:20.078Z,82.68
2023-02-13T21:14:46.586Z,82.92
2023-02-13T21:17:13.344Z,83.42
2023-02-13T21:19:39.991Z,83.36
2023-02-13T21:22:12.699Z,83.42
2023-02-13T21:24:42.961Z,83.01
2023-02-13T21:27:10.592Z,82.95
2023-02-13T21:29:38.200Z,82.62
2023-02-13T21:32:04.953Z,83.37
2023-02-13T21:34:31.582Z,83.62
2023-02-13T21:36:58.087Z,83.63
2023-02-13T21:39:24.665Z,84.01
2023-02-13T21:41:51.153Z,83.67
2023-02-13T21:44:17.761Z,83.70
2023-02-13T21:46:45.488Z,83.68
2023-02-13T21:49:15.240Z,83.27
2023-02-13T21:51:42.221Z,83.49
2023-02-13T21:54:10.372Z,83.44
2023-02-13T21:56:38.748Z,83.41
2023-02-13T21:59:05.702Z,83.34
2023-02-13T22:01:45.231Z,83.13
2023-02-13T22:04:11.899Z,83.20
2023-02-13T22:06:39.957Z,83.50
2023-02-13T22:09:11.761Z,83.75
2023-02-13T22:11:39.108Z,83.60
2023-02-13T22:14:07.700Z,84.11
2023-02-13T22:16:36.905Z,83.70
2023-02-13T22:19:05.007Z,83.95
2023-02-13T22:21:33.354Z,83.74
2023-02-13T22:24:00.132Z,83.60
2023-02-13T22:26:32.481Z,84.07
2023-02-13T22:29:01.308Z,84.13
2023-02-13T22:31:28.039Z,83.70
2023-02-13T22:34:03.436Z,84.17
2023-02-13T22:36:32.655Z,84.72
2023-02-13T22:38:59.199Z,84.58
2023-02-13T22:41:26.787Z,83.78
2023-02-13T22:43:53.836Z,84.43
2023-02-13T22:46:28.966Z,84.71
2023-02-13T22:48:56.218Z,84.40
2023-02-13T22:51:27.166Z,84.15
2023-02-13T22:53:55.807Z,84.16
2023-02-13T22:56:24.277Z,83.70
2023-02-13T22:58:51.167Z,84.22
2023-02-13T23:01:19.733Z,84.34
2023-02-13T23:03:46.594Z,83.56
2023-02-13T23:06:14.514Z,83.89
2023-02-13T23:08:41.991Z,84.14
2023-02-13T23:11:32.698Z,84.51
2023-02-13T23:13:59.684Z,84.04
2023-02-13T23:16:26.864Z,83.46
2023-02-13T23:18:55.528Z,84.49
2023-02-13T23:21:22.224Z,84.06
2023-02-13T23:23:49.632Z,84.04
2023-02-13T23:26:16.403Z,84.08
2023-02-13T23:28:43.238Z,83.97
2023-02-13T23:31:10.086Z,83.62
2023-02-13T23:33:36.750Z,83.93
2023-02-13T23:36:03.431Z,84.57
2023-02-13T23:38:29.968Z,83.87
2023-02-13T23:40:56.582Z,83.97
2023-02-13T23:43:23.145Z,84.01
2023-02-13T23:45:49.905Z,84.42
2023-02-13T23:48:16.555Z,84.96
2023-02-13T23:50:43.136Z,84.54
2023-02-13T23:53:09.753Z,84.56
2023-02-13T23:55:36.366Z,84.82
2023-02-13T23:58:02.844Z,84.88
